Time;durP1;ratioP1;P1;durP2;ratioP2;P2;SDS_P1;SDS_P2;PMS_P1;PMS_P2;Temp;Humidity;BMP_temperature;BMP_pressure;BME280_temperature;BME280_humidity;BME280_pressure;Samples;Min_cycle;Max_cycle;Signal;HPM_P1;HPM_P2
2022/04/22 00:00:10;;;;;;;24.83;15.40;;;;;;;10.48;64.73;99921.91;8870508;32;20716;-73
2022/04/22 00:05:15;;;;;;;26.17;15.35;;;;;;;10.28;65.96;99907.50;8872923;32;20135;-73
2022/04/22 00:10:18;;;;;;;24.02;15.32;;;;;;;10.37;65.87;99906.72;8872438;33;20344;-72
2022/04/22 00:15:21;;;;;;;24.25;14.70;;;;;;;10.41;66.04;99898.41;8872222;32;20241;-72
2022/04/22 00:20:26;;;;;;;24.73;15.00;;;;;;;10.39;66.19;99887.78;8872159;32;20178;-72
2022/04/22 00:25:29;;;;;;;24.80;15.40;;;;;;;10.37;66.39;99881.72;8871640;32;20146;-73
2022/04/22 00:30:32;;;;;;;21.83;15.00;;;;;;;10.22;66.84;99875.00;8875982;33;20151;-73
2022/04/22 00:35:36;;;;;;;27.48;16.58;;;;;;;10.13;67.11;99882.03;8873903;32;20209;-73
2022/04/22 00:40:40;;;;;;;25.52;14.75;;;;;;;10.03;67.74;99873.06;8872099;32;20241;-72
2022/04/22 00:45:43;;;;;;;27.35;15.75;;;;;;;9.97;68.24;99868.25;8871048;33;20233;-72
2022/04/22 00:50:48;;;;;;;26.35;16.00;;;;;;;9.98;68.66;99865.41;8871372;32;20259;-72
2022/04/22 00:55:53;;;;;;;26.80;15.30;;;;;;;10.00;68.51;99867.97;8870689;32;20154;-72
2022/04/22 01:00:56;;;;;;;29.70;16.02;;;;;;;10.03;68.76;99862.34;8870602;32;20178;-72
2022/04/22 01:11:23;;;;;;;27.25;16.13;;;;;;;9.99;69.21;99848.34;8871088;33;20690;-72
2022/04/22 01:16:26;;;;;;;27.85;16.35;;;;;;;9.97;69.79;99853.00;8870663;32;20155;-72
2022/04/22 01:21:30;;;;;;;29.63;16.95;;;;;;;9.99;69.94;99847.50;8870863;32;20568;-72
2022/04/22 01:26:33;;;;;;;32.45;16.63;;;;;;;9.99;70.10;99845.66;8869738;33;20240;-72
2022/04/22 01:31:36;;;;;;;35.53;18.80;;;;;;;9.94;70.17;99848.75;8870221;33;20166;-72
2022/04/22 01:36:41;;;;;;;27.48;16.65;;;;;;;9.92;70.08;99848.00;8869551;32;20658;-72
2022/04/22 01:41:44;;;;;;;25.90;15.30;;;;;;;9.80;70.45;99842.84;8869897;32;20193;-72
2022/04/22 01:46:47;;;;;;;27.20;16.55;;;;;;;9.84;69.93;99834.38;8869280;33;20729;-72
2022/04/22 01:51:54;;;;;;;28.83;17.70;;;;;;;9.75;70.21;99837.88;8869826;32;20138;-72
2022/04/22 01:56:57;;;;;;;26.55;15.82;;;;;;;9.73;70.17;99831.78;8869415;32;20150;-72
2022/04/22 02:02:00;;;;;;;31.83;18.73;;;;;;;9.57;70.86;99818.88;8869452;32;20496;-72
2022/04/22 02:07:06;;;;;;;29.63;17.35;;;;;;;9.62;70.57;99818.44;8869525;32;20288;-72
2022/04/22 02:12:11;;;;;;;29.73;17.70;;;;;;;9.66;70.60;99811.88;8869724;32;20311;-72
2022/04/22 02:17:14;;;;;;;27.83;16.65;;;;;;;9.62;70.65;99819.28;8869069;32;20882;-72
2022/04/22 02:22:18;;;;;;;31.42;17.90;;;;;;;9.60;70.72;99805.19;8869558;33;20195;-72
2022/04/22 02:32:41;;;;;;;33.42;19.40;;;;;;;9.65;71.08;99805.66;8869273;32;20142;-72
2022/04/22 02:37:46;;;;;;;33.88;18.73;;;;;;;9.59;70.85;99800.78;8868788;32;20204;-72
2022/04/22 02:48:10;;;;;;;30.85;18.50;;;;;;;9.23;71.35;99788.72;8871534;32;20585;-72
2022/04/22 02:53:14;;;;;;;32.60;17.42;;;;;;;9.15;71.54;99788.50;8873768;32;20142;-72
2022/04/22 02:58:17;;;;;;;30.08;16.75;;;;;;;9.12;71.31;99794.97;8873481;32;20142;-73
2022/04/22 03:03:20;;;;;;;34.05;18.80;;;;;;;8.99;71.75;99799.66;8873958;33;20745;-73
2022/04/22 03:08:25;;;;;;;31.63;17.70;;;;;;;8.91;72.11;99794.94;8873436;32;20288;-73
2022/04/22 03:13:28;;;;;;;33.58;18.58;;;;;;;8.86;72.22;99791.81;8873374;32;20552;-73
2022/04/22 03:18:32;;;;;;;32.55;17.85;;;;;;;8.81;71.97;99786.84;8872867;32;20145;-73
2022/04/22 03:23:36;;;;;;;35.58;19.73;;;;;;;8.77;72.57;99787.22;8873223;32;20627;-73
2022/04/22 03:28:40;;;;;;;33.78;19.70;;;;;;;8.67;72.70;99780.94;8871552;32;20236;-72
2022/04/22 03:33:43;;;;;;;34.15;18.58;;;;;;;8.55;73.19;99769.41;8872844;32;20292;-73
2022/04/22 03:38:47;;;;;;;35.40;18.50;;;;;;;8.53;73.21;99768.66;8872481;32;20154;-73
2022/04/22 03:43:50;;;;;;;36.60;19.83;;;;;;;8.46;72.96;99773.69;8872850;32;20452;-73
2022/04/22 03:48:55;;;;;;;35.13;18.25;;;;;;;8.38;73.59;99773.44;8872437;32;20173;-73
2022/04/22 03:54:00;;;;;;;35.08;19.40;;;;;;;8.35;73.56;99765.66;8872445;32;20518;-73
2022/04/22 03:59:05;;;;;;;36.38;20.08;;;;;;;8.40;73.95;99768.81;8871831;32;20223;-73
2022/04/22 04:04:08;;;;;;;36.88;21.20;;;;;;;8.40;74.04;99766.13;8873190;32;20849;-74
2022/04/22 04:25:16;;;;;;;35.95;19.80;;;;;;;8.57;74.35;99770.13;8871721;32;20138;-73
2022/04/22 04:30:20;;;;;;;36.47;19.15;;;;;;;8.62;74.27;99762.56;8871330;33;20245;-73
2022/04/22 04:35:23;;;;;;;35.42;20.17;;;;;;;8.73;73.96;99754.50;8872033;32;20155;-73
2022/04/22 04:40:27;;;;;;;37.42;21.10;;;;;;;8.79;73.95;99755.81;8871319;32;20627;-73
2022/04/22 04:45:30;;;;;;;38.05;21.10;;;;;;;8.87;73.75;99750.66;8870895;33;20119;-73
2022/04/22 04:50:34;;;;;;;34.97;19.70;;;;;;;8.91;73.64;99757.44;8871054;32;20143;-73
2022/04/22 04:55:39;;;;;;;35.40;19.55;;;;;;;8.95;73.37;99752.69;8870998;32;20152;-73
2022/04/22 05:00:42;;;;;;;37.22;20.67;;;;;;;9.02;73.37;99737.78;8870480;33;20239;-73
2022/04/22 05:05:45;;;;;;;41.65;22.60;;;;;;;9.02;73.31;99746.69;8870224;32;20287;-73
2022/04/22 05:10:49;;;;;;;40.10;21.23;;;;;;;9.05;73.08;99729.50;8870474;32;20174;-73
2022/04/22 05:15:53;;;;;;;38.83;21.17;;;;;;;9.11;73.30;99731.66;8870257;33;20515;-74
2022/04/22 05:20:56;;;;;;;41.58;22.38;;;;;;;9.07;73.39;99730.22;8870827;32;20138;-73
2022/04/22 05:26:01;;;;;;;41.35;23.38;;;;;;;9.12;73.45;99732.50;8870002;32;20556;-74
2022/04/22 05:36:26;;;;;;;35.95;19.65;;;;;;;9.18;73.04;99731.97;8869503;32;20135;-74
2022/04/22 05:41:30;;;;;;;42.28;23.38;;;;;;;9.25;72.82;99734.00;8869583;32;20241;-73
2022/04/22 05:46:33;;;;;;;42.67;22.48;;;;;;;9.39;72.43;99732.81;8869460;32;20223;-74
2022/04/22 05:51:36;;;;;;;42.58;21.00;;;;;;;9.48;72.08;99739.22;8869650;32;20578;-73
2022/04/22 05:56:40;;;;;;;37.30;20.50;;;;;;;9.55;71.90;99739.53;8869158;32;20139;-74
2022/04/22 06:01:43;;;;;;;40.63;22.35;;;;;;;9.53;71.79;99728.94;8869221;32;20146;-73
2022/04/22 06:06:46;;;;;;;35.95;18.65;;;;;;;9.58;71.31;99733.91;8869192;32;20135;-73
2022/04/22 06:11:51;;;;;;;32.30;18.85;;;;;;;9.53;71.07;99733.47;8869297;32;20165;-73
2022/04/22 06:16:54;;;;;;;33.17;18.05;;;;;;;9.57;70.80;99734.88;8869069;32;21060;-73
2022/04/22 06:21:57;;;;;;;32.83;18.73;;;;;;;9.66;70.44;99728.72;8871747;33;20230;-74
2022/04/22 06:27:01;;;;;;;32.58;18.17;;;;;;;9.72;70.23;99731.72;8873396;32;20219;-74
2022/04/22 06:32:06;;;;;;;26.10;15.77;;;;;;;9.91;69.66;99722.91;8873184;32;20292;-74
2022/04/22 06:37:10;;;;;;;23.67;14.45;;;;;;;10.02;68.89;99724.66;8872948;32;20201;-74
2022/04/22 06:47:37;;;;;;;23.88;14.00;;;;;;;10.24;67.62;99726.25;8872816;33;20143;-73
2022/04/22 06:52:40;;;;;;;18.90;12.27;;;;;;;10.50;66.77;99726.56;8870246;33;20188;-73
2022/04/22 06:57:49;;;;;;;18.90;11.82;;;;;;;10.58;65.63;99726.72;8878621;32;20150;-73
2022/04/22 07:02:52;;;;;;;17.33;11.43;;;;;;;10.81;64.94;99718.41;8886868;32;20648;-72
2022/04/22 07:07:56;;;;;;;19.08;12.90;;;;;;;11.17;64.03;99724.03;8880936;32;20142;-73
2022/04/22 07:13:01;;;;;;;22.13;13.02;;;;;;;11.56;62.53;99727.47;8875724;33;20434;-73
2022/04/22 07:18:06;;;;;;;22.77;14.02;;;;;;;11.69;61.51;99728.00;8873624;32;20231;-73
2022/04/22 07:23:12;;;;;;;20.38;13.73;;;;;;;11.38;62.10;99722.03;8873220;32;20654;-73
2022/04/22 07:28:17;;;;;;;23.42;13.95;;;;;;;11.17;62.68;99716.81;8873559;33;20267;-72
2022/04/22 07:33:20;;;;;;;23.98;14.38;;;;;;;11.48;62.42;99708.53;8873545;32;20149;-72
2022/04/22 07:38:24;;;;;;;24.80;15.45;;;;;;;11.96;60.41;99710.19;8873618;32;20218;-73
2022/04/22 07:48:50;;;;;;;18.92;12.07;;;;;;;12.15;58.72;99715.44;8873576;32;20153;-72
2022/04/22 07:53:55;;;;;;;18.35;11.40;;;;;;;12.50;58.10;99710.28;8873365;32;20234;-73
2022/04/22 07:59:00;;;;;;;18.77;10.80;;;;;;;13.27;56.38;99715.00;8872934;33;20127;-72
2022/04/22 08:04:03;;;;;;;15.05;10.20;;;;;;;13.63;55.10;99708.63;8872052;33;20215;-73
2022/04/22 08:09:07;;;;;;;11.63;9.55;;;;;;;14.69;53.19;99702.75;8872621;32;20147;-72
2022/04/22 08:14:12;;;;;;;13.63;9.55;;;;;;;15.31;51.34;99694.97;8871924;33;20285;-72
2022/04/22 08:19:15;;;;;;;15.23;9.20;;;;;;;15.19;50.73;99699.91;8871379;32;20257;-72
2022/04/22 08:24:18;;;;;;;11.32;8.38;;;;;;;15.58;50.37;99703.75;8871893;32;20623;-72
2022/04/22 08:29:22;;;;;;;12.45;9.05;;;;;;;15.42;49.23;99702.75;8871619;33;20237;-72
2022/04/22 08:34:25;;;;;;;11.20;7.45;;;;;;;15.28;49.52;99711.56;8872052;33;20444;-73
2022/04/22 08:39:28;;;;;;;10.27;7.78;;;;;;;15.33;49.28;99703.78;8870276;33;20551;-71
2022/04/22 08:44:32;;;;;;;12.35;7.88;;;;;;;15.27;49.43;99697.16;8869596;33;20918;-72
2022/04/22 08:54:57;;;;;;;8.68;7.10;;;;;;;14.80;49.75;99695.16;8871679;32;20514;-73
2022/04/22 09:00:07;;;;;;;11.20;7.45;;;;;;;14.82;49.92;99690.44;8847732;27;20670;-73
2022/04/22 09:05:10;;;;;;;12.38;8.60;;;;;;;14.93;50.47;99688.41;8753121;33;20606;-74
2022/04/22 09:10:14;;;;;;;10.60;8.45;;;;;;;14.74;50.06;99695.00;8753550;33;20144;-72
2022/04/22 09:15:18;;;;;;;10.82;7.82;;;;;;;14.73;50.60;99683.34;8753758;33;20148;-73
2022/04/22 09:20:21;;;;;;;11.48;8.10;;;;;;;14.77;50.50;99690.09;8730313;33;20666;-74
2022/04/22 09:25:26;;;;;;;14.00;8.75;;;;;;;15.10;49.28;99684.69;8753681;33;20461;-74
2022/04/22 09:30:32;;;;;;;10.60;8.30;;;;;;;15.40;49.20;99668.78;8752164;33;20295;-73
2022/04/22 09:42:38;;;;;;;11.82;8.70;;;;;;;15.83;47.45;99667.44;8751792;33;20147;-73
2022/04/22 09:46:30;;;;;;;9.93;7.65;;;;;;;16.44;46.39;99662.22;8751381;33;20639;-72
2022/04/22 09:51:33;;;;;;;10.35;8.18;;;;;;;16.84;45.40;99653.94;8751789;33;20161;-72
2022/04/22 09:56:38;;;;;;;10.88;7.65;;;;;;;16.09;46.30;99650.88;8750572;33;20197;-72
2022/04/22 10:01:42;;;;;;;9.98;7.50;;;;;;;15.69;47.51;99652.78;8751252;33;20140;-72
2022/04/22 10:07:04;;;;;;;14.32;8.02;;;;;;;15.89;47.40;99644.22;8750799;33;20201;-73
2022/04/22 10:12:12;;;;;;;10.68;8.02;;;;;;;16.92;46.01;99630.31;8750870;33;20663;-73
2022/04/22 10:17:19;;;;;;;10.80;8.52;;;;;;;17.23;45.70;99629.34;8752483;33;20167;-73
2022/04/22 10:22:23;;;;;;;12.65;7.88;;;;;;;17.81;44.01;99627.63;8751159;33;20136;-73
2022/04/22 10:27:26;;;;;;;12.75;8.43;;;;;;;18.70;43.31;99616.47;8750707;33;20234;-73
2022/04/22 10:32:31;;;;;;;8.73;7.38;;;;;;;18.90;41.41;99608.53;8750600;33;20600;-73
2022/04/22 10:37:38;;;;;;;11.30;8.35;;;;;;;18.25;43.22;99613.13;8750322;33;20148;-73
2022/04/22 10:42:41;;;;;;;12.10;7.85;;;;;;;17.71;43.57;99613.50;8750378;33;20544;-72
2022/04/22 10:47:48;;;;;;;11.68;8.75;;;;;;;17.22;44.20;99617.66;8752331;33;20228;-74
2022/04/22 10:53:01;;;;;;;12.52;8.15;;;;;;;16.84;45.22;99608.69;8754696;33;20258;-73
2022/04/22 10:58:23;;;;;;;12.13;8.55;;;;;;;16.31;46.33;99605.03;8752611;33;20827;-73
2022/04/22 11:03:34;;;;;;;10.77;7.72;;;;;;;16.51;45.62;99622.53;8749857;33;20404;-72
2022/04/22 11:08:41;;;;;;;12.40;8.38;;;;;;;16.72;45.64;99604.72;8753525;33;20431;-73
2022/04/22 11:13:46;;;;;;;12.50;8.52;;;;;;;16.52;46.36;99607.09;8758214;33;20654;-73
2022/04/22 11:19:26;;;;;;;13.35;8.18;;;;;;;15.97;46.87;99606.25;8754514;33;20695;-73
2022/04/22 11:24:33;;;;;;;11.43;8.45;;;;;;;15.89;46.88;99609.03;8754731;33;20136;-73
2022/04/22 11:29:36;;;;;;;13.70;9.50;;;;;;;15.39;48.13;99608.41;8757780;33;20278;-73
2022/04/22 11:35:14;;;;;;;17.65;10.07;;;;;;;15.64;47.10;99605.59;8755350;33;20152;-72
2022/04/22 11:40:20;;;;;;;17.60;10.32;;;;;;;15.27;47.82;99607.03;8757799;33;20516;-72
2022/04/22 11:45:23;;;;;;;14.85;10.30;;;;;;;14.98;48.04;99618.44;8756299;33;20219;-73
2022/04/22 11:50:28;;;;;;;16.77;10.40;;;;;;;15.33;48.22;99608.19;8755565;33;20480;-72
2022/04/22 11:55:37;;;;;;;14.43;9.68;;;;;;;15.38;47.35;99622.94;8731011;33;20144;-72
2022/04/22 12:06:02;;;;;;;15.65;10.18;;;;;;;16.22;45.97;99616.94;8732678;33;20679;-73
2022/04/22 12:11:05;;;;;;;15.43;9.40;;;;;;;15.80;46.27;99623.63;8757047;33;20428;-73
2022/04/22 12:16:08;;;;;;;15.68;9.68;;;;;;;15.96;46.24;99619.97;8754886;33;21099;-73
2022/04/22 12:21:13;;;;;;;14.40;10.02;;;;;;;18.41;42.81;99601.16;8755211;33;20167;-74
2022/04/22 12:26:19;;;;;;;14.75;9.95;;;;;;;19.36;39.46;99604.41;8756134;33;20194;-73
2022/04/22 12:31:22;;;;;;;18.45;11.05;;;;;;;18.77;40.04;99603.78;8756063;33;20183;-74
2022/04/22 12:36:27;;;;;;;15.77;10.82;;;;;;;17.31;42.83;99596.69;8759677;33;20140;-75
2022/04/22 12:41:33;;;;;;;19.08;10.38;;;;;;;18.16;41.91;99589.81;8759843;33;20156;-73
2022/04/22 12:52:09;;;;;;;14.38;10.27;;;;;;;17.98;41.02;99575.81;8731995;33;20566;-73
2022/04/22 12:57:20;;;;;;;15.48;10.25;;;;;;;19.55;40.09;99590.06;8747621;33;20175;-74
2022/04/22 13:02:30;;;;;;;16.17;10.95;;;;;;;19.44;39.47;99580.59;8725299;33;20144;-74
2022/04/22 13:07:47;;;;;;;14.45;11.15;;;;;;;18.22;41.09;99591.75;8700395;33;20632;-73
2022/04/22 13:12:50;;;;;;;17.60;12.50;;;;;;;17.84;42.23;99597.38;8724185;33;20183;-73
2022/04/22 13:17:53;;;;;;;18.63;12.32;;;;;;;17.32;42.59;99598.38;8726064;33;20260;-74
2022/04/22 13:22:58;;;;;;;18.17;12.73;;;;;;;17.34;42.72;99588.19;8720838;33;20324;-74
2022/04/22 13:28:01;;;;;;;16.48;12.80;;;;;;;17.24;42.76;99591.16;8713646;33;20318;-73
2022/04/22 13:33:04;;;;;;;18.98;13.38;;;;;;;17.10;43.32;99580.28;8693212;33;20219;-74
2022/04/22 13:38:08;;;;;;;19.23;13.15;;;;;;;18.03;41.38;99567.94;8693432;33;20617;-74
2022/04/22 13:43:11;;;;;;;18.58;14.70;;;;;;;17.41;42.00;99582.81;8696480;33;20992;-74
2022/04/22 13:53:36;;;;;;;18.90;13.43;;;;;;;17.55;42.81;99583.84;8672362;33;20145;-73
2022/04/22 13:58:39;;;;;;;19.85;13.57;;;;;;;18.01;41.13;99581.72;8713057;33;20549;-74
2022/04/22 14:03:42;;;;;;;20.27;13.23;;;;;;;18.47;40.10;99580.50;8721000;33;20524;-73
2022/04/22 14:08:46;;;;;;;21.45;15.02;;;;;;;18.54;39.80;99573.22;8721024;33;20930;-73
2022/04/22 14:13:49;;;;;;;19.42;14.48;;;;;;;18.03;40.98;99576.09;8741097;33;20227;-73
2022/04/22 14:18:53;;;;;;;19.35;14.07;;;;;;;17.64;42.23;99578.13;8753791;33;20590;-74
2022/04/22 14:23:57;;;;;;;16.33;12.82;;;;;;;17.65;42.80;99574.38;8754231;33;20243;-72
2022/04/22 14:29:00;;;;;;;21.52;15.30;;;;;;;19.06;40.01;99562.97;8747689;33;20458;-71
2022/04/22 14:34:03;;;;;;;20.30;15.18;;;;;;;19.21;40.56;99559.09;8719512;33;20439;-72
2022/04/22 14:39:08;;;;;;;19.17;14.23;;;;;;;18.33;41.10;99566.78;8718525;33;20141;-72
2022/04/22 14:44:11;;;;;;;17.52;14.40;;;;;;;17.32;43.40;99570.38;8695267;33;20200;-72
2022/04/22 14:49:15;;;;;;;17.77;12.93;;;;;;;17.85;42.82;99562.88;8697079;33;20243;-72
2022/04/22 14:54:19;;;;;;;17.48;12.35;;;;;;;17.67;42.26;99547.03;8721625;33;20144;-73
2022/04/22 14:59:24;;;;;;;17.35;12.18;;;;;;;17.57;42.88;99546.50;8729450;27;20145;-72
2022/04/22 15:04:27;;;;;;;16.50;12.27;;;;;;;18.33;41.39;99526.00;8613758;33;20955;-71
2022/04/22 15:09:32;;;;;;;15.50;11.27;;;;;;;18.63;41.38;99525.81;8609263;34;20192;-71
2022/04/22 15:14:35;;;;;;;15.55;11.82;;;;;;;19.10;40.10;99531.59;8608852;34;20569;-72
2022/04/22 15:25:04;;;;;;;15.23;11.27;;;;;;;19.15;40.25;99535.41;8565004;34;20610;-73
2022/04/22 15:30:09;;;;;;;19.17;11.18;;;;;;;18.08;42.19;99530.16;8581212;34;20160;-73
2022/04/22 15:35:12;;;;;;;12.25;10.18;;;;;;;17.51;43.02;99534.50;8597944;34;20158;-73
2022/04/22 15:40:16;;;;;;;13.70;10.77;;;;;;;16.46;44.94;99538.19;8607867;33;20172;-73
2022/04/22 15:45:19;;;;;;;12.98;10.38;;;;;;;16.33;45.92;99546.94;8610557;34;20684;-73
2022/04/22 15:50:22;;;;;;;15.20;10.45;;;;;;;16.02;46.40;99541.56;8609879;34;20188;-73
2022/04/22 15:55:27;;;;;;;19.48;11.55;;;;;;;16.12;46.52;99538.59;8606439;34;20241;-73
2022/04/22 16:00:30;;;;;;;15.90;10.52;;;;;;;16.40;46.27;99530.81;8607960;34;20181;-73
2022/04/22 16:05:34;;;;;;;15.20;11.02;;;;;;;16.25;46.91;99527.16;8607808;34;20497;-73
2022/04/22 16:10:39;;;;;;;16.20;11.70;;;;;;;16.52;46.55;99517.66;8610342;34;20154;-71
2022/04/22 16:15:42;;;;;;;15.00;10.63;;;;;;;18.00;43.38;99512.09;8610804;34;20177;-72
2022/04/22 16:20:45;;;;;;;15.27;11.05;;;;;;;17.77;43.87;99501.41;8618243;34;20149;-73
2022/04/22 16:25:51;;;;;;;13.60;10.82;;;;;;;17.20;44.78;99522.03;8637007;34;20154;-72
2022/04/22 16:30:55;;;;;;;14.80;10.75;;;;;;;16.33;47.06;99516.28;8614113;34;20224;-71
2022/04/22 16:35:58;;;;;;;13.98;9.90;;;;;;;15.52;49.18;99510.38;8595537;34;20151;-72
2022/04/22 16:41:02;;;;;;;17.45;10.77;;;;;;;15.04;49.76;99518.53;8597875;34;20146;-73
2022/04/22 16:46:08;;;;;;;9.43;7.53;;;;;;;14.73;49.67;99515.75;8610002;34;20915;-74
2022/04/22 16:51:12;;;;;;;8.48;6.20;;;;;;;14.55;48.89;99520.50;8631005;34;20429;-73
2022/04/22 16:56:16;;;;;;;6.88;5.65;;;;;;;14.98;48.17;99521.94;8626586;34;20672;-74
2022/04/22 17:01:20;;;;;;;9.75;6.03;;;;;;;15.01;48.15;99515.34;8573557;34;20228;-73
2022/04/22 17:06:23;;;;;;;12.50;5.90;;;;;;;15.19;48.10;99532.19;8581569;34;20154;-73
2022/04/22 17:11:28;;;;;;;9.70;5.65;;;;;;;15.05;48.31;99522.91;8580886;34;20146;-73
2022/04/22 17:27:22;;;;;;;9.25;5.75;;;;;;;14.78;49.16;99536.84;8516820;34;20459;-73
2022/04/22 17:32:25;;;;;;;10.98;7.07;;;;;;;14.43;49.86;99525.44;8556551;34;20185;-72
2022/04/22 17:37:28;;;;;;;7.03;5.63;;;;;;;14.50;49.88;99531.81;8579768;34;21046;-72
2022/04/22 17:42:33;;;;;;;6.78;5.93;;;;;;;14.53;49.67;99527.94;8580569;34;20575;-72
2022/04/22 17:47:36;;;;;;;10.18;6.68;;;;;;;14.23;50.19;99538.38;8556457;34;20146;-73
2022/04/22 17:52:39;;;;;;;9.00;6.28;;;;;;;14.14;50.67;99536.72;8580753;34;20329;-73
2022/04/22 17:57:44;;;;;;;9.98;7.55;;;;;;;13.60;51.72;99539.84;8580684;34;20150;-73
2022/04/22 18:02:47;;;;;;;9.13;6.82;;;;;;;13.42;52.32;99547.19;8581848;34;20551;-72
2022/04/22 18:07:51;;;;;;;8.77;6.78;;;;;;;13.34;52.81;99547.97;8557363;34;20158;-73
2022/04/22 18:12:55;;;;;;;13.10;9.15;;;;;;;13.22;53.06;99551.97;8579414;34;20297;-72
2022/04/22 18:17:58;;;;;;;11.15;8.05;;;;;;;12.96;53.79;99557.38;8580525;34;20881;-72
2022/04/22 18:23:02;;;;;;;13.95;9.38;;;;;;;12.91;53.99;99560.56;8583771;34;20508;-72
2022/04/22 18:28:07;;;;;;;12.73;9.75;;;;;;;12.89;54.10;99561.72;8583415;34;20163;-72
2022/04/22 18:33:10;;;;;;;15.25;10.10;;;;;;;12.69;54.77;99561.09;8583796;34;20225;-72
2022/04/22 18:38:15;;;;;;;11.52;9.48;;;;;;;12.73;54.79;99559.78;8583244;34;20150;-72
2022/04/22 18:43:20;;;;;;;12.77;10.20;;;;;;;12.65;55.11;99575.91;8583792;34;20439;-72
2022/04/22 18:48:28;;;;;;;14.25;10.70;;;;;;;12.44;55.71;99576.22;8583172;34;20283;-72
2022/04/22 18:53:31;;;;;;;14.25;10.57;;;;;;;12.47;55.89;99565.97;8583294;34;20147;-72
2022/04/22 18:58:36;;;;;;;15.85;10.85;;;;;;;12.44;56.16;99573.53;8582512;34;20240;-72
2022/04/22 19:03:39;;;;;;;16.58;10.57;;;;;;;12.43;56.15;99583.47;8583088;34;20285;-72
2022/04/22 19:08:42;;;;;;;17.63;11.25;;;;;;;12.35;56.49;99588.78;8582209;34;20154;-74
2022/04/22 19:13:47;;;;;;;16.63;11.88;;;;;;;12.39;56.61;99587.47;8581135;34;20150;-73
2022/04/22 19:18:50;;;;;;;17.02;11.57;;;;;;;12.41;56.69;99595.41;8582857;34;20147;-73
2022/04/22 19:23:53;;;;;;;17.30;11.98;;;;;;;12.36;56.76;99598.56;8581930;34;20186;-73
2022/04/22 19:28:58;;;;;;;16.02;10.52;;;;;;;12.29;56.86;99594.81;8558410;34;20254;-73
2022/04/22 19:34:01;;;;;;;17.65;12.23;;;;;;;12.15;57.19;99599.69;8582613;34;20510;-73
2022/04/22 19:44:26;;;;;;;15.82;11.93;;;;;;;11.86;58.57;99607.13;8582849;34;20416;-72
2022/04/22 19:49:29;;;;;;;16.15;11.82;;;;;;;11.75;59.11;99610.03;8557706;34;20174;-73
2022/04/22 19:54:32;;;;;;;18.58;12.20;;;;;;;11.68;59.31;99617.84;8557210;34;20154;-73
2022/04/22 19:59:38;;;;;;;17.88;13.32;;;;;;;11.56;59.64;99608.28;8580282;34;20639;-73
2022/04/22 20:04:41;;;;;;;20.35;13.82;;;;;;;11.52;59.89;99599.69;8581631;34;20143;-73
2022/04/22 20:09:44;;;;;;;18.95;14.15;;;;;;;11.51;60.08;99608.72;8581031;34;20154;-73
2022/04/22 20:14:49;;;;;;;20.48;13.93;;;;;;;11.42;60.50;99607.78;8581649;34;20150;-73
2022/04/22 20:19:52;;;;;;;26.35;14.68;;;;;;;11.44;60.43;99605.78;8580879;34;20601;-73
2022/04/22 20:24:56;;;;;;;20.90;13.50;;;;;;;11.42;60.58;99606.94;8581115;34;20628;-73
2022/04/22 20:30:01;;;;;;;21.88;14.90;;;;;;;11.35;61.03;99608.50;8580126;34;20146;-73
2022/04/22 20:40:41;;;;;;;21.58;15.70;;;;;;;11.20;61.84;99606.31;8579278;34;20264;-73
2022/04/22 20:45:48;;;;;;;24.52;16.55;;;;;;;11.20;61.82;99616.22;8579333;34;20146;-73
2022/04/22 20:50:53;;;;;;;24.13;15.25;;;;;;;11.17;61.99;99613.84;8579812;34;20161;-73
2022/04/22 20:55:56;;;;;;;23.85;16.10;;;;;;;11.05;62.22;99614.00;8578395;34;20427;-73
2022/04/22 21:01:03;;;;;;;27.00;16.88;;;;;;;11.00;62.74;99612.72;8633160;27;20277;-74
2022/04/22 21:06:08;;;;;;;26.30;17.67;;;;;;;10.98;62.80;99625.47;8754971;33;20152;-74
2022/04/22 21:11:11;;;;;;;25.77;17.25;;;;;;;10.93;62.92;99619.66;8754275;33;20229;-74
2022/04/22 21:16:15;;;;;;;26.00;18.48;;;;;;;10.76;63.71;99626.63;8776282;33;20245;-74
2022/04/22 21:21:20;;;;;;;31.25;19.17;;;;;;;10.73;63.88;99618.88;8753788;33;20144;-75
2022/04/22 21:26:23;;;;;;;29.88;18.90;;;;;;;10.80;63.55;99628.88;8752409;33;20247;-74
2022/04/22 21:31:28;;;;;;;29.40;18.80;;;;;;;10.79;63.55;99618.28;8710618;33;20683;-74
2022/04/22 21:36:31;;;;;;;29.48;19.27;;;;;;;10.68;63.88;99619.28;8700131;33;20161;-74
2022/04/22 21:41:34;;;;;;;28.23;19.20;;;;;;;10.70;63.78;99632.59;8749761;33;20393;-74
2022/04/22 21:46:38;;;;;;;31.35;19.20;;;;;;;10.82;63.59;99632.28;8751610;33;20202;-76
2022/04/22 21:51:41;;;;;;;33.65;19.83;;;;;;;10.71;63.97;99631.59;8749852;33;20158;-74
2022/04/22 21:56:45;;;;;;;31.73;18.90;;;;;;;10.63;64.08;99632.31;8750201;33;20179;-74
2022/04/22 22:01:55;;;;;;;35.08;21.90;;;;;;;10.67;63.99;99638.22;8750317;33;20151;-74
2022/04/22 22:06:58;;;;;;;34.50;20.17;;;;;;;10.62;64.34;99633.31;8749768;33;20548;-74
2022/04/22 22:12:01;;;;;;;29.65;18.75;;;;;;;10.61;64.11;99634.28;8750775;33;20437;-74
2022/04/22 22:17:05;;;;;;;35.45;20.23;;;;;;;10.66;64.08;99629.31;8750131;33;20184;-74
2022/04/22 22:22:08;;;;;;;33.60;21.10;;;;;;;10.71;63.98;99636.97;8750971;33;20354;-74
2022/04/22 22:27:11;;;;;;;32.00;20.67;;;;;;;10.61;64.06;99631.59;8750244;33;20227;-74
2022/04/22 22:32:16;;;;;;;32.58;21.38;;;;;;;10.68;63.81;99634.56;8750495;33;20841;-74
2022/04/22 22:37:19;;;;;;;34.88;20.65;;;;;;;10.48;64.57;99626.53;8749503;33;20192;-78
2022/04/22 22:42:22;;;;;;;31.25;18.85;;;;;;;10.49;64.40;99627.38;8750354;33;20156;-74
2022/04/22 22:47:26;;;;;;;33.17;20.08;;;;;;;10.50;64.53;99637.94;8749518;33;20244;-74
2022/04/22 22:52:29;;;;;;;32.70;19.77;;;;;;;10.54;64.59;99634.00;8749524;33;20379;-74
2022/04/22 22:57:32;;;;;;;31.55;20.45;;;;;;;10.66;64.25;99628.47;8749603;33;20734;-74
2022/04/22 23:02:36;;;;;;;31.77;20.80;;;;;;;10.59;64.45;99628.22;8750130;33;20239;-74
2022/04/22 23:07:39;;;;;;;28.17;19.73;;;;;;;10.65;64.27;99630.31;8756235;33;20152;-75
2022/04/22 23:12:43;;;;;;;27.48;18.63;;;;;;;10.60;64.37;99632.59;8755938;33;20176;-74
2022/04/22 23:17:47;;;;;;;32.15;20.42;;;;;;;10.31;65.27;99627.22;8754080;33;20242;-74
2022/04/22 23:22:51;;;;;;;29.35;19.73;;;;;;;10.54;64.49;99623.25;8754475;33;20156;-74
2022/04/22 23:27:55;;;;;;;31.45;21.38;;;;;;;10.48;64.71;99620.31;8753810;33;20148;-73
2022/04/22 23:32:59;;;;;;;28.65;19.67;;;;;;;10.60;64.40;99625.38;8754230;33;20144;-74
2022/04/22 23:38:02;;;;;;;31.95;19.85;;;;;;;10.50;64.40;99613.78;8752422;33;20364;-74
2022/04/22 23:43:07;;;;;;;26.90;18.08;;;;;;;10.62;64.27;99617.19;8753648;33;20150;-74
2022/04/22 23:48:12;;;;;;;25.90;17.85;;;;;;;10.68;64.02;99613.06;8753335;33;20167;-74
2022/04/22 23:53:15;;;;;;;28.60;17.45;;;;;;;10.64;64.11;99609.84;8753174;33;20140;-74
2022/04/22 23:58:18;;;;;;;27.90;18.58;;;;;;;10.61;64.14;99604.72;8752815;33;20179;-74
